createdAt,value
2022-12-13T00:02:03.130Z,57.86
2022-12-13T00:04:33.211Z,57.83
2022-12-13T00:07:02.808Z,57.88
2022-12-13T00:09:32.585Z,57.98
2022-12-13T00:12:02.379Z,58.10
2022-12-13T00:14:33.699Z,58.03
2022-12-13T00:17:03.646Z,58.24
2022-12-13T00:19:33.037Z,58.37
2022-12-13T00:22:02.963Z,59.38
2022-12-13T00:24:32.577Z,58.91
2022-12-13T00:27:02.183Z,58.52
2022-12-13T00:29:32.302Z,58.46
2022-12-13T00:32:01.884Z,58.41
2022-12-13T00:34:32.069Z,58.44
2022-12-13T00:37:01.803Z,57.92
2022-12-13T00:39:31.345Z,57.23
2022-12-13T00:42:01.433Z,57.27
2022-12-13T00:44:32.236Z,57.13
2022-12-13T00:47:02.226Z,57.17
2022-12-13T00:49:31.693Z,57.07
2022-12-13T00:52:01.330Z,57.03
2022-12-13T00:54:31.039Z,57.04
2022-12-13T00:57:00.665Z,56.79
2022-12-13T00:59:30.362Z,56.57
2022-12-13T01:02:00.115Z,56.45
2022-12-13T01:04:29.821Z,56.20
2022-12-13T01:06:59.439Z,56.65
2022-12-13T01:09:30.943Z,56.20
2022-12-13T01:12:02.986Z,56.02
2022-12-13T01:14:32.902Z,55.95
2022-12-13T01:17:02.969Z,55.95
2022-12-13T01:19:33.950Z,55.54
2022-12-13T01:22:08.558Z,55.60
2022-12-13T01:24:38.229Z,55.24
2022-12-13T01:27:08.471Z,55.63
2022-12-13T01:29:38.790Z,55.61
2022-12-13T01:32:08.469Z,55.82
2022-12-13T01:34:38.413Z,55.75
2022-12-13T01:37:08.224Z,56.25
2022-12-13T01:39:37.831Z,55.65
2022-12-13T01:42:08.383Z,55.44
2022-12-13T01:45:08.104Z,55.24
2022-12-13T01:48:07.127Z,55.50
2022-12-13T01:50:42.188Z,55.98
2022-12-13T01:53:20.569Z,56.27
2022-12-13T01:55:56.423Z,56.24
2022-12-13T01:58:27.897Z,56.53
2022-12-13T02:00:58.270Z,56.29
2022-12-13T02:03:28.667Z,56.42
2022-12-13T02:06:12.219Z,56.28
2022-12-13T02:08:43.359Z,56.67
2022-12-13T02:11:14.540Z,56.36
2022-12-13T02:13:44.729Z,56.99
2022-12-13T02:16:22.443Z,57.20
2022-12-13T02:19:18.307Z,56.85
2022-12-13T02:22:32.047Z,56.86
2022-12-13T02:25:28.906Z,57.17
2022-12-13T02:28:30.614Z,57.08
2022-12-13T02:31:39.850Z,56.94
2022-12-13T02:34:22.351Z,56.75
2022-12-13T02:37:24.247Z,56.78
2022-12-13T02:39:59.507Z,56.79
2022-12-13T02:42:39.523Z,56.98
2022-12-13T02:45:26.748Z,56.71
2022-12-13T02:47:59.773Z,57.38
2022-12-13T02:50:30.481Z,57.51
2022-12-13T02:53:02.384Z,57.44
2022-12-13T02:55:33.567Z,57.30
2022-12-13T02:58:03.628Z,57.28
2022-12-13T03:00:45.398Z,56.76
2022-12-13T03:03:27.571Z,56.94
2022-12-13T03:06:26.009Z,56.72
2022-12-13T03:09:16.751Z,56.92
2022-12-13T03:12:25.425Z,57.41
2022-12-13T03:15:01.211Z,57.15
2022-12-13T03:17:39.175Z,57.39
2022-12-13T03:20:22.224Z,57.51
2022-12-13T03:22:54.439Z,57.08
2022-12-13T03:25:32.171Z,57.29
2022-12-13T03:28:03.643Z,56.97
2022-12-13T03:30:34.668Z,56.57
2022-12-13T03:33:04.439Z,56.43
2022-12-13T03:35:45.267Z,56.70
2022-12-13T03:38:22.314Z,56.08
2022-12-13T03:40:59.371Z,56.39
2022-12-13T03:43:30.387Z,56.57
2022-12-13T03:46:00.196Z,57.06
2022-12-13T03:48:30.006Z,57.04
2022-12-13T03:50:59.964Z,56.80
2022-12-13T03:53:33.460Z,58.02
2022-12-13T03:56:06.466Z,57.86
2022-12-13T03:58:38.333Z,57.41
2022-12-13T04:01:10.741Z,57.58
2022-12-13T04:03:41.899Z,56.75
2022-12-13T04:06:21.968Z,57.49
2022-12-13T04:08:53.860Z,57.58
2022-12-13T04:11:43.239Z,56.66
2022-12-13T04:14:22.335Z,56.07
2022-12-13T04:16:53.849Z,56.28
2022-12-13T04:19:24.299Z,56.05
2022-12-13T04:21:55.703Z,56.19
2022-12-13T04:24:31.929Z,56.66
2022-12-13T04:27:03.402Z,56.08
2022-12-13T04:29:34.501Z,56.53
2022-12-13T04:32:26.521Z,56.60
2022-12-13T04:35:01.029Z,56.67
2022-12-13T04:37:43.379Z,56.82
2022-12-13T04:40:14.013Z,57.67
2022-12-13T04:42:54.116Z,57.15
2022-12-13T04:45:24.386Z,56.70
2022-12-13T04:47:54.236Z,57.05
2022-12-13T04:50:23.671Z,56.67
2022-12-13T04:52:53.687Z,56.83
2022-12-13T04:55:23.214Z,56.05
2022-12-13T04:57:53.447Z,55.91
2022-12-13T05:00:24.196Z,55.79
2022-12-13T05:02:54.373Z,55.81
2022-12-13T05:05:24.322Z,55.54
2022-12-13T05:07:53.769Z,55.49
2022-12-13T05:10:34.227Z,54.57
2022-12-13T05:13:08.225Z,54.64
2022-12-13T05:15:39.197Z,55.13
2022-12-13T05:18:10.636Z,54.54
2022-12-13T05:20:41.500Z,54.02
2022-12-13T05:23:11.182Z,54.14
2022-12-13T05:25:40.603Z,54.27
2022-12-13T05:28:27.445Z,53.76
2022-12-13T05:31:00.044Z,54.34
2022-12-13T05:33:29.999Z,54.54
2022-12-13T05:36:02.056Z,54.45
2022-12-13T05:38:32.825Z,54.03
2022-12-13T05:41:02.597Z,53.38
2022-12-13T05:43:42.395Z,52.93
2022-12-13T05:46:13.615Z,53.08
2022-12-13T05:48:44.774Z,53.06
2022-12-13T05:51:14.730Z,52.50
2022-12-13T05:53:47.310Z,52.96
2022-12-13T05:56:22.348Z,52.75
2022-12-13T05:58:53.637Z,51.59
2022-12-13T06:01:24.668Z,50.96
2022-12-13T06:03:54.789Z,50.89
2022-12-13T06:06:24.673Z,51.30
2022-12-13T06:08:54.491Z,50.69
2022-12-13T06:11:31.689Z,50.22
2022-12-13T06:14:02.310Z,51.03
2022-12-13T06:16:32.046Z,48.75
2022-12-13T06:19:04.687Z,49.00
2022-12-13T06:21:43.854Z,48.95
2022-12-13T06:24:20.942Z,48.58
2022-12-13T06:26:52.799Z,48.98
2022-12-13T06:29:25.686Z,48.82
2022-12-13T06:32:01.170Z,48.54
2022-12-13T06:34:36.093Z,47.55
2022-12-13T06:37:10.330Z,46.68
2022-12-13T06:39:41.042Z,46.74
2022-12-13T06:42:21.457Z,46.59
2022-12-13T06:44:55.751Z,46.36
2022-12-13T06:47:32.041Z,46.85
2022-12-13T06:50:05.016Z,46.83
2022-12-13T06:52:36.414Z,47.37
2022-12-13T06:55:06.809Z,47.13
2022-12-13T06:57:37.321Z,47.09
2022-12-13T07:00:11.785Z,47.64
2022-12-13T07:02:41.446Z,47.23
2022-12-13T07:05:12.509Z,46.50
2022-12-13T07:07:42.126Z,46.27
2022-12-13T07:10:21.520Z,47.01
2022-12-13T07:12:52.126Z,46.17
2022-12-13T07:15:22.312Z,46.50
2022-12-13T07:17:53.259Z,45.80
2022-12-13T07:20:24.857Z,46.04
2022-12-13T07:22:59.086Z,45.24
2022-12-13T07:25:29.833Z,45.27
2022-12-13T07:28:04.597Z,45.05
2022-12-13T07:30:41.695Z,45.27
2022-12-13T07:33:12.884Z,45.52
2022-12-13T07:36:19.132Z,44.58
2022-12-13T07:38:57.121Z,44.95
2022-12-13T07:41:28.492Z,45.01
2022-12-13T07:43:58.576Z,44.68
2022-12-13T07:46:33.275Z,44.94
2022-12-13T07:49:04.335Z,44.86
2022-12-13T07:51:36.568Z,44.82
2022-12-13T07:54:09.885Z,44.92
2022-12-13T07:56:39.647Z,44.84
2022-12-13T07:59:11.187Z,45.04
2022-12-13T08:01:41.084Z,45.26
2022-12-13T08:04:11.522Z,44.72
2022-12-13T08:06:46.102Z,45.08
2022-12-13T08:09:16.195Z,45.05
2022-12-13T08:11:46.219Z,45.09
2022-12-13T08:14:16.039Z,45.21
2022-12-13T08:16:45.927Z,45.17
2022-12-13T08:19:16.058Z,44.78
2022-12-13T08:21:55.246Z,44.11
2022-12-13T08:24:27.456Z,43.07
2022-12-13T08:27:02.372Z,42.68
2022-12-13T08:29:36.234Z,43.24
2022-12-13T08:32:09.679Z,43.08
2022-12-13T08:34:40.551Z,43.57
2022-12-13T08:37:10.468Z,43.32
2022-12-13T08:39:41.487Z,42.83
2022-12-13T08:42:19.346Z,42.73
2022-12-13T08:44:55.024Z,42.72
2022-12-13T08:47:27.449Z,43.24
2022-12-13T08:50:04.428Z,43.26
2022-12-13T08:52:40.589Z,43.56
2022-12-13T08:55:14.680Z,43.02
2022-12-13T08:57:45.918Z,42.52
2022-12-13T09:00:20.001Z,42.37
2022-12-13T09:02:50.038Z,41.98
2022-12-13T09:05:32.414Z,42.18
2022-12-13T09:08:23.007Z,42.50
2022-12-13T09:11:00.096Z,41.97
2022-12-13T09:13:32.935Z,42.45
2022-12-13T09:16:22.909Z,42.72
2022-12-13T09:18:57.003Z,42.99
2022-12-13T09:21:31.435Z,42.47
2022-12-13T09:24:02.780Z,42.08
2022-12-13T09:26:38.368Z,42.36
2022-12-13T09:29:10.942Z,42.21
2022-12-13T09:31:42.438Z,42.37
2022-12-13T09:34:13.941Z,42.29
2022-12-13T09:36:44.424Z,41.72
2022-12-13T09:39:14.267Z,42.24
2022-12-13T09:42:01.411Z,42.18
2022-12-13T09:44:43.826Z,41.95
2022-12-13T09:47:39.217Z,41.67
2022-12-13T09:50:40.429Z,41.43
2022-12-13T09:53:21.702Z,41.37
2022-12-13T09:55:53.534Z,41.41
2022-12-13T09:58:41.229Z,41.45
2022-12-13T10:01:13.744Z,42.09
2022-12-13T10:04:02.966Z,41.60
2022-12-13T10:06:35.853Z,41.43
2022-12-13T10:09:12.352Z,41.42
2022-12-13T10:11:53.918Z,41.55
2022-12-13T10:14:41.432Z,41.55
2022-12-13T10:17:17.777Z,41.61
2022-12-13T10:19:52.601Z,41.63
2022-12-13T10:22:26.783Z,41.13
2022-12-13T10:25:07.372Z,41.00
2022-12-13T10:27:42.869Z,41.33
2022-12-13T10:30:28.471Z,41.36
2022-12-13T10:33:07.455Z,41.59
2022-12-13T10:35:42.444Z,41.33
2022-12-13T10:38:18.329Z,41.48
2022-12-13T10:40:50.114Z,41.74
2022-12-13T10:43:31.498Z,41.89
2022-12-13T10:46:03.961Z,42.16
2022-12-13T10:48:48.388Z,42.29
2022-12-13T10:51:24.182Z,42.79
2022-12-13T10:54:01.635Z,42.94
2022-12-13T10:56:51.671Z,43.36
2022-12-13T10:59:29.224Z,43.50
2022-12-13T11:01:58.950Z,44.00
2022-12-13T11:04:37.284Z,43.24
2022-12-13T11:07:28.197Z,43.03
2022-12-13T11:10:05.651Z,42.97
2022-12-13T11:12:45.407Z,42.87
2022-12-13T11:15:30.558Z,42.65
2022-12-13T11:18:06.130Z,42.40
2022-12-13T11:20:39.118Z,43.05
2022-12-13T11:23:30.691Z,42.80
2022-12-13T11:26:06.925Z,43.82
2022-12-13T11:28:54.830Z,44.44
2022-12-13T11:31:30.656Z,44.72
2022-12-13T11:34:30.987Z,44.95
2022-12-13T11:37:28.553Z,45.06
2022-12-13T11:40:16.824Z,45.60
2022-12-13T11:42:53.744Z,45.61
2022-12-13T11:45:26.659Z,46.27
2022-12-13T11:48:03.074Z,46.34
2022-12-13T11:50:45.803Z,46.62
2022-12-13T11:53:21.845Z,46.95
2022-12-13T11:56:22.762Z,47.17
2022-12-13T11:59:20.709Z,47.21
2022-12-13T12:02:16.793Z,47.54
2022-12-13T12:04:58.076Z,47.99
2022-12-13T12:07:35.969Z,48.52
2022-12-13T12:10:29.511Z,48.59
2022-12-13T12:13:23.597Z,48.84
2022-12-13T12:16:21.459Z,49.20
2022-12-13T12:18:53.311Z,49.45
2022-12-13T12:22:12.029Z,49.65
2022-12-13T12:25:15.986Z,49.44
2022-12-13T12:28:30.390Z,49.67
2022-12-13T12:31:12.616Z,49.90
2022-12-13T12:33:58.028Z,49.84
2022-12-13T12:36:30.259Z,50.25
2022-12-13T12:39:12.328Z,50.30
2022-12-13T12:41:51.091Z,50.76
2022-12-13T12:44:35.695Z,50.57
2022-12-13T12:48:39.491Z,49.77
2022-12-13T12:50:45.897Z,50.05
2022-12-13T12:53:31.207Z,50.15
2022-12-13T12:56:24.187Z,49.87
2022-12-13T12:59:12.080Z,49.76
2022-12-13T13:01:54.862Z,49.91
2022-12-13T13:04:34.916Z,50.29
2022-12-13T13:07:23.354Z,50.95
2022-12-13T13:09:55.698Z,50.80
2022-12-13T13:12:29.942Z,50.54
2022-12-13T13:15:01.967Z,50.22
2022-12-13T13:17:31.590Z,50.79
2022-12-13T13:20:34.135Z,50.35
2022-12-13T13:23:38.621Z,50.34
2022-12-13T13:26:26.100Z,50.17
2022-12-13T13:28:56.174Z,50.82
2022-12-13T13:31:26.222Z,50.94
2022-12-13T13:33:55.940Z,50.99
2022-12-13T13:36:41.821Z,51.54
2022-12-13T13:40:00.618Z,51.60
2022-12-13T13:42:32.803Z,51.68
2022-12-13T13:45:02.369Z,51.16
2022-12-13T13:47:35.747Z,51.23
2022-12-13T13:50:18.785Z,51.17
2022-12-13T13:52:58.075Z,51.44
2022-12-13T13:55:39.799Z,51.78
2022-12-13T13:58:34.021Z,51.45
2022-12-13T14:01:36.565Z,50.97
2022-12-13T14:04:28.339Z,51.29
2022-12-13T14:07:33.929Z,51.30
2022-12-13T14:10:38.865Z,50.86
2022-12-13T14:13:34.445Z,50.81
2022-12-13T14:16:38.167Z,51.21
2022-12-13T14:19:45.831Z,51.58
2022-12-13T14:22:31.611Z,52.08
2022-12-13T14:25:13.466Z,52.46
2022-12-13T14:27:54.797Z,52.25
2022-12-13T14:30:26.870Z,52.34
2022-12-13T14:32:58.467Z,51.86
2022-12-13T14:35:33.712Z,51.99
2022-12-13T14:38:06.007Z,51.85
2022-12-13T14:40:48.688Z,51.78
2022-12-13T14:43:30.296Z,51.22
2022-12-13T14:46:06.600Z,51.29
2022-12-13T14:48:55.679Z,51.27
2022-12-13T14:51:35.035Z,50.91
2022-12-13T14:54:07.925Z,50.88
2022-12-13T14:56:55.228Z,50.73
2022-12-13T14:59:25.737Z,51.03
2022-12-13T15:02:00.980Z,51.00
2022-12-13T15:04:38.445Z,50.66
2022-12-13T15:07:31.635Z,50.67
2022-12-13T15:10:09.740Z,51.10
2022-12-13T15:12:44.882Z,50.56
2022-12-13T15:15:37.260Z,50.74
2022-12-13T15:18:20.724Z,50.49
2022-12-13T15:20:54.564Z,50.59
2022-12-13T15:23:34.939Z,50.45
2022-12-13T15:26:29.067Z,50.82
2022-12-13T15:29:09.406Z,50.48
2022-12-13T15:31:41.491Z,50.65
2022-12-13T15:34:30.548Z,50.12
2022-12-13T15:37:29.629Z,50.09
2022-12-13T15:40:10.419Z,50.52
2022-12-13T15:42:45.727Z,50.72
2022-12-13T15:45:22.957Z,50.71
2022-12-13T15:47:54.585Z,50.71
2022-12-13T15:50:47.224Z,51.13
2022-12-13T15:53:30.221Z,51.13
2022-12-13T15:56:04.748Z,51.26
2022-12-13T15:58:38.918Z,51.62
2022-12-13T16:01:08.922Z,51.27
2022-12-13T16:03:48.121Z,51.66
2022-12-13T16:06:23.362Z,51.54
2022-12-13T16:09:00.105Z,51.87
2022-12-13T16:12:05.720Z,51.81
2022-12-13T16:14:54.825Z,51.40
2022-12-13T16:17:56.097Z,51.97
2022-12-13T16:20:30.139Z,51.30
2022-12-13T16:23:08.778Z,51.33
2022-12-13T16:25:41.734Z,51.12
2022-12-13T16:28:17.432Z,51.30
2022-12-13T16:30:57.184Z,51.21
2022-12-13T16:33:28.620Z,51.15
2022-12-13T16:36:07.717Z,51.23
2022-12-13T16:38:38.651Z,50.85
2022-12-13T16:41:09.984Z,51.23
2022-12-13T16:43:54.846Z,51.11
2022-12-13T16:47:16.058Z,51.21
2022-12-13T16:49:26.426Z,50.99
2022-12-13T16:51:57.481Z,51.76
2022-12-13T16:54:28.584Z,51.43
2022-12-13T16:56:58.732Z,51.53
2022-12-13T16:59:30.725Z,50.86
2022-12-13T17:02:04.065Z,50.53
2022-12-13T17:04:35.004Z,50.21
2022-12-13T17:07:05.359Z,50.71
2022-12-13T17:09:36.628Z,50.37
2022-12-13T17:12:07.311Z,50.58
2022-12-13T17:14:37.182Z,51.18
2022-12-13T17:17:06.927Z,50.95
2022-12-13T17:19:37.429Z,51.05
2022-12-13T17:22:07.451Z,51.36
2022-12-13T17:24:37.496Z,51.71
2022-12-13T17:27:07.585Z,52.09
2022-12-13T17:29:39.352Z,52.09
2022-12-13T17:32:09.997Z,52.00
2022-12-13T17:34:39.874Z,51.61
2022-12-13T17:37:10.765Z,51.61
2022-12-13T17:39:41.179Z,51.89
2022-12-13T17:42:13.007Z,51.82
2022-12-13T17:44:44.244Z,51.76
2022-12-13T17:47:15.160Z,51.60
2022-12-13T17:49:48.344Z,51.99
2022-12-13T17:52:18.967Z,52.00
2022-12-13T17:54:49.636Z,51.96
2022-12-13T17:57:20.258Z,52.21
2022-12-13T17:59:50.802Z,52.38
2022-12-13T18:02:24.237Z,52.31
2022-12-13T18:04:54.195Z,52.43
2022-12-13T18:07:26.185Z,52.98
2022-12-13T18:09:56.003Z,52.56
2022-12-13T18:12:25.637Z,52.92
2022-12-13T18:14:55.752Z,53.07
2022-12-13T18:17:46.620Z,53.77
2022-12-13T18:20:16.006Z,53.33
2022-12-13T18:22:51.142Z,53.81
2022-12-13T18:25:21.282Z,53.60
2022-12-13T18:27:51.579Z,53.72
2022-12-13T18:30:23.243Z,53.52
2022-12-13T18:32:52.911Z,53.96
2022-12-13T18:35:22.558Z,54.17
2022-12-13T18:37:53.434Z,54.10
2022-12-13T18:40:23.202Z,54.57
2022-12-13T18:42:53.724Z,54.27
2022-12-13T18:45:23.350Z,54.27
2022-12-13T18:47:52.979Z,54.82
2022-12-13T18:50:22.969Z,53.99
2022-12-13T18:52:53.022Z,54.07
2022-12-13T18:55:22.728Z,54.33
2022-12-13T18:57:54.044Z,54.91
2022-12-13T19:00:25.324Z,54.29
2022-12-13T19:02:55.167Z,54.30
2022-12-13T19:05:25.126Z,54.64
2022-12-13T19:07:55.126Z,54.90
2022-12-13T19:10:24.923Z,55.61
2022-12-13T19:12:54.779Z,55.93
2022-12-13T19:15:24.521Z,55.90
2022-12-13T19:17:54.801Z,56.23
2022-12-13T19:20:24.645Z,55.66
2022-12-13T19:22:55.029Z,55.62
2022-12-13T19:25:24.838Z,55.37
2022-12-13T19:27:57.690Z,55.13
2022-12-13T19:30:28.013Z,55.44
2022-12-13T19:32:57.752Z,56.21
2022-12-13T19:35:27.699Z,56.52
2022-12-13T19:37:57.065Z,56.97
2022-12-13T19:40:26.685Z,57.00
2022-12-13T19:42:56.863Z,56.66
2022-12-13T19:45:26.356Z,56.37
2022-12-13T19:47:55.913Z,56.89
2022-12-13T19:50:25.909Z,57.31
2022-12-13T19:52:55.452Z,57.26
2022-12-13T19:55:24.809Z,57.32
2022-12-13T19:57:54.812Z,58.18
2022-12-13T20:00:24.536Z,58.28
2022-12-13T20:02:54.683Z,58.32
2022-12-13T20:05:24.841Z,58.53
2022-12-13T20:07:59.139Z,58.51
2022-12-13T20:10:29.774Z,59.34
2022-12-13T20:12:59.653Z,59.52
2022-12-13T20:15:29.864Z,59.58
2022-12-13T20:17:59.658Z,59.70
2022-12-13T20:20:46.977Z,59.54
2022-12-13T20:23:20.522Z,60.32
2022-12-13T20:26:00.143Z,60.76
2022-12-13T20:28:30.268Z,60.67
2022-12-13T20:31:17.287Z,60.68
2022-12-13T20:33:47.228Z,61.17
2022-12-13T20:36:25.801Z,61.21
2022-12-13T20:39:01.998Z,60.92
2022-12-13T20:41:34.339Z,60.81
2022-12-13T20:44:06.330Z,60.69
2022-12-13T20:46:36.344Z,60.47
2022-12-13T20:49:08.425Z,59.98
2022-12-13T20:51:42.616Z,60.24
2022-12-13T20:54:12.371Z,60.55
2022-12-13T20:56:42.234Z,61.52
2022-12-13T20:59:14.909Z,60.87
2022-12-13T21:01:48.782Z,60.67
2022-12-13T21:04:19.738Z,60.34
2022-12-13T21:06:49.590Z,60.43
2022-12-13T21:09:19.397Z,60.13
2022-12-13T21:11:51.351Z,61.09
2022-12-13T21:14:26.608Z,60.98
2022-12-13T21:17:01.584Z,61.37
2022-12-13T21:19:39.318Z,60.86
2022-12-13T21:22:10.104Z,61.50
2022-12-13T21:24:39.895Z,61.65
2022-12-13T21:27:09.617Z,61.47
2022-12-13T21:29:39.477Z,61.68
2022-12-13T21:32:09.219Z,61.68
2022-12-13T21:34:38.741Z,62.37
2022-12-13T21:37:08.586Z,62.22
2022-12-13T21:39:41.158Z,62.79
2022-12-13T21:42:11.310Z,63.00
2022-12-13T21:44:40.908Z,63.60
2022-12-13T21:47:12.204Z,63.66
2022-12-13T21:49:48.824Z,63.58
2022-12-13T21:52:18.755Z,63.40
2022-12-13T21:54:48.294Z,63.10
2022-12-13T21:57:38.176Z,63.34
2022-12-13T22:00:09.476Z,63.26
2022-12-13T22:02:42.057Z,63.94
2022-12-13T22:05:12.327Z,63.54
2022-12-13T22:07:41.931Z,63.53
2022-12-13T22:10:11.500Z,63.28
2022-12-13T22:12:43.096Z,63.27
2022-12-13T22:15:17.716Z,63.44
2022-12-13T22:17:47.642Z,63.90
2022-12-13T22:20:17.198Z,63.68
2022-12-13T22:22:49.747Z,63.60
2022-12-13T22:25:19.914Z,63.41
2022-12-13T22:27:49.728Z,63.38
2022-12-13T22:30:19.091Z,63.39
2022-12-13T22:32:48.710Z,63.31
2022-12-13T22:35:18.271Z,63.82
2022-12-13T22:37:51.040Z,63.48
2022-12-13T22:40:20.855Z,63.60
2022-12-13T22:42:50.132Z,63.85
2022-12-13T22:45:19.795Z,63.89
2022-12-13T22:47:50.449Z,63.84
2022-12-13T22:50:21.818Z,64.54
2022-12-13T22:52:51.772Z,64.50
2022-12-13T22:55:21.746Z,65.03
2022-12-13T22:57:54.353Z,65.22
2022-12-13T23:00:24.090Z,65.24
2022-12-13T23:02:56.589Z,65.68
2022-12-13T23:05:25.730Z,64.83
2022-12-13T23:07:55.684Z,65.20
2022-12-13T23:10:43.540Z,64.76
2022-12-13T23:13:15.916Z,64.67
2022-12-13T23:15:49.352Z,65.02
2022-12-13T23:18:19.602Z,65.06
2022-12-13T23:20:48.937Z,64.94
2022-12-13T23:23:18.749Z,64.58
2022-12-13T23:25:48.852Z,64.70
2022-12-13T23:28:19.067Z,64.77
2022-12-13T23:30:48.860Z,64.62
2022-12-13T23:33:18.866Z,64.75
2022-12-13T23:35:48.053Z,64.46
2022-12-13T23:38:18.086Z,64.91
2022-12-13T23:40:47.700Z,64.93
2022-12-13T23:43:17.964Z,64.96
2022-12-13T23:45:47.582Z,64.53
2022-12-13T23:48:19.191Z,64.39
2022-12-13T23:50:52.350Z,64.76
2022-12-13T23:53:22.879Z,65.07
2022-12-13T23:55:52.844Z,65.14
2022-12-13T23:58:24.008Z,65.30
